sensor_id;sensor_type;location;lat;lon;timestamp;P1;durP1;ratioP1;P2;durP2;ratioP2
49854;SDS011;35752;52.164;21.244;2022-07-23T00:01:18;15.43;;;13.88;;
49854;SDS011;35752;52.164;21.244;2022-07-23T00:03:44;15.02;;;13.48;;
49854;SDS011;35752;52.164;21.244;2022-07-23T00:06:10;16.52;;;14.32;;
49854;SDS011;35752;52.164;21.244;2022-07-23T00:08:36;15.68;;;14.07;;
49854;SDS011;35752;52.164;21.244;2022-07-23T00:11:02;17.33;;;13.57;;
49854;SDS011;35752;52.164;21.244;2022-07-23T00:13:27;14.80;;;13.30;;
49854;SDS011;35752;52.164;21.244;2022-07-23T00:15:53;16.00;;;13.18;;
49854;SDS011;35752;52.164;21.244;2022-07-23T00:18:19;15.98;;;14.23;;
49854;SDS011;35752;52.164;21.244;2022-07-23T00:20:45;15.75;;;14.15;;
49854;SDS011;35752;52.164;21.244;2022-07-23T00:23:10;16.42;;;14.68;;
49854;SDS011;35752;52.164;21.244;2022-07-23T00:25:36;15.68;;;14.27;;
49854;SDS011;35752;52.164;21.244;2022-07-23T00:28:02;16.23;;;14.57;;
49854;SDS011;35752;52.164;21.244;2022-07-23T00:30:28;17.10;;;15.23;;
49854;SDS011;35752;52.164;21.244;2022-07-23T00:32:55;16.10;;;14.65;;
49854;SDS011;35752;52.164;21.244;2022-07-23T00:35:23;16.90;;;14.35;;
49854;SDS011;35752;52.164;21.244;2022-07-23T00:37:50;16.52;;;14.90;;
49854;SDS011;35752;52.164;21.244;2022-07-23T00:40:16;15.93;;;14.35;;
49854;SDS011;35752;52.164;21.244;2022-07-23T00:55:23;15.82;;;14.23;;
49854;SDS011;35752;52.164;21.244;2022-07-23T00:57:49;16.75;;;15.18;;
49854;SDS011;35752;52.164;21.244;2022-07-23T01:00:16;16.30;;;14.73;;
49854;SDS011;35752;52.164;21.244;2022-07-23T01:02:42;16.85;;;15.13;;
49854;SDS011;35752;52.164;21.244;2022-07-23T01:05:08;16.67;;;15.07;;
49854;SDS011;35752;52.164;21.244;2022-07-23T01:07:34;17.38;;;15.65;;
49854;SDS011;35752;52.164;21.244;2022-07-23T01:10:01;17.80;;;16.13;;
49854;SDS011;35752;52.164;21.244;2022-07-23T01:12:28;15.98;;;14.57;;
49854;SDS011;35752;52.164;21.244;2022-07-23T01:14:54;27.15;;;15.38;;
49854;SDS011;35752;52.164;21.244;2022-07-23T01:17:24;18.95;;;14.52;;
49854;SDS011;35752;52.164;21.244;2022-07-23T01:19:50;16.45;;;14.95;;
49854;SDS011;35752;52.164;21.244;2022-07-23T01:22:18;17.23;;;15.63;;
49854;SDS011;35752;52.164;21.244;2022-07-23T01:24:44;17.35;;;15.52;;
49854;SDS011;35752;52.164;21.244;2022-07-23T01:27:10;17.35;;;15.65;;
49854;SDS011;35752;52.164;21.244;2022-07-23T01:29:37;17.80;;;15.90;;
49854;SDS011;35752;52.164;21.244;2022-07-23T01:32:03;16.75;;;14.88;;
49854;SDS011;35752;52.164;21.244;2022-07-23T01:34:30;16.85;;;15.25;;
49854;SDS011;35752;52.164;21.244;2022-07-23T01:36:55;19.05;;;16.88;;
49854;SDS011;35752;52.164;21.244;2022-07-23T01:39:21;16.73;;;15.13;;
49854;SDS011;35752;52.164;21.244;2022-07-23T01:41:47;17.52;;;15.82;;
49854;SDS011;35752;52.164;21.244;2022-07-23T01:44:12;17.70;;;15.98;;
49854;SDS011;35752;52.164;21.244;2022-07-23T01:46:38;17.08;;;15.27;;
49854;SDS011;35752;52.164;21.244;2022-07-23T01:49:04;17.45;;;15.77;;
49854;SDS011;35752;52.164;21.244;2022-07-23T01:51:30;16.88;;;14.73;;
49854;SDS011;35752;52.164;21.244;2022-07-23T01:53:55;17.73;;;15.93;;
49854;SDS011;35752;52.164;21.244;2022-07-23T01:56:21;16.80;;;15.35;;
49854;SDS011;35752;52.164;21.244;2022-07-23T01:58:50;17.55;;;15.70;;
49854;SDS011;35752;52.164;21.244;2022-07-23T02:01:16;19.38;;;14.50;;
49854;SDS011;35752;52.164;21.244;2022-07-23T02:03:41;17.23;;;15.27;;
49854;SDS011;35752;52.164;21.244;2022-07-23T02:06:07;17.17;;;14.73;;
49854;SDS011;35752;52.164;21.244;2022-07-23T02:08:33;19.90;;;15.30;;
49854;SDS011;35752;52.164;21.244;2022-07-23T02:10:59;16.83;;;15.32;;
49854;SDS011;35752;52.164;21.244;2022-07-23T02:13:24;16.90;;;15.10;;
49854;SDS011;35752;52.164;21.244;2022-07-23T02:15:50;16.77;;;14.55;;
49854;SDS011;35752;52.164;21.244;2022-07-23T02:18:16;16.27;;;14.55;;
49854;SDS011;35752;52.164;21.244;2022-07-23T02:20:41;16.90;;;15.20;;
49854;SDS011;35752;52.164;21.244;2022-07-23T02:23:07;17.13;;;15.18;;
49854;SDS011;35752;52.164;21.244;2022-07-23T02:25:33;18.20;;;15.80;;
49854;SDS011;35752;52.164;21.244;2022-07-23T02:27:59;17.90;;;16.10;;
49854;SDS011;35752;52.164;21.244;2022-07-23T02:30:25;17.20;;;15.60;;
49854;SDS011;35752;52.164;21.244;2022-07-23T02:32:51;18.27;;;15.90;;
49854;SDS011;35752;52.164;21.244;2022-07-23T02:35:16;17.13;;;15.45;;
49854;SDS011;35752;52.164;21.244;2022-07-23T02:37:42;17.98;;;16.13;;
49854;SDS011;35752;52.164;21.244;2022-07-23T02:40:08;18.15;;;16.27;;
49854;SDS011;35752;52.164;21.244;2022-07-23T02:42:34;17.40;;;15.68;;
49854;SDS011;35752;52.164;21.244;2022-07-23T02:45:00;18.20;;;16.30;;
49854;SDS011;35752;52.164;21.244;2022-07-23T02:47:26;17.88;;;16.08;;
49854;SDS011;35752;52.164;21.244;2022-07-23T02:49:51;16.38;;;14.60;;
49854;SDS011;35752;52.164;21.244;2022-07-23T02:52:17;16.65;;;15.07;;
49854;SDS011;35752;52.164;21.244;2022-07-23T02:54:43;17.20;;;14.93;;
49854;SDS011;35752;52.164;21.244;2022-07-23T02:57:08;16.58;;;14.98;;
49854;SDS011;35752;52.164;21.244;2022-07-23T02:59:34;17.83;;;16.10;;
49854;SDS011;35752;52.164;21.244;2022-07-23T03:02:00;17.05;;;15.25;;
49854;SDS011;35752;52.164;21.244;2022-07-23T03:04:25;18.00;;;16.15;;
49854;SDS011;35752;52.164;21.244;2022-07-23T03:06:51;18.38;;;15.50;;
49854;SDS011;35752;52.164;21.244;2022-07-23T03:09:17;16.55;;;15.05;;
49854;SDS011;35752;52.164;21.244;2022-07-23T03:11:43;16.42;;;14.82;;
49854;SDS011;35752;52.164;21.244;2022-07-23T03:14:08;19.13;;;15.88;;
49854;SDS011;35752;52.164;21.244;2022-07-23T03:16:34;17.15;;;15.55;;
49854;SDS011;35752;52.164;21.244;2022-07-23T03:19:00;18.60;;;15.70;;
49854;SDS011;35752;52.164;21.244;2022-07-23T03:21:25;16.92;;;15.32;;
49854;SDS011;35752;52.164;21.244;2022-07-23T03:23:51;18.15;;;15.70;;
49854;SDS011;35752;52.164;21.244;2022-07-23T03:26:17;17.30;;;15.70;;
49854;SDS011;35752;52.164;21.244;2022-07-23T03:28:43;18.17;;;16.30;;
49854;SDS011;35752;52.164;21.244;2022-07-23T03:31:08;16.85;;;15.25;;
49854;SDS011;35752;52.164;21.244;2022-07-23T03:33:34;18.10;;;16.35;;
49854;SDS011;35752;52.164;21.244;2022-07-23T03:36:00;18.17;;;16.13;;
49854;SDS011;35752;52.164;21.244;2022-07-23T03:38:25;17.02;;;15.52;;
49854;SDS011;35752;52.164;21.244;2022-07-23T03:40:51;17.00;;;15.45;;
49854;SDS011;35752;52.164;21.244;2022-07-23T03:43:17;18.48;;;16.50;;
49854;SDS011;35752;52.164;21.244;2022-07-23T03:45:42;17.65;;;15.85;;
49854;SDS011;35752;52.164;21.244;2022-07-23T03:48:08;16.85;;;14.85;;
49854;SDS011;35752;52.164;21.244;2022-07-23T03:50:34;17.15;;;15.45;;
49854;SDS011;35752;52.164;21.244;2022-07-23T03:52:59;17.40;;;15.68;;
49854;SDS011;35752;52.164;21.244;2022-07-23T03:55:25;17.70;;;15.90;;
49854;SDS011;35752;52.164;21.244;2022-07-23T03:57:51;46.88;;;18.13;;
49854;SDS011;35752;52.164;21.244;2022-07-23T04:00:17;68.60;;;20.33;;
49854;SDS011;35752;52.164;21.244;2022-07-23T04:02:42;19.50;;;17.05;;
49854;SDS011;35752;52.164;21.244;2022-07-23T04:05:08;35.33;;;16.90;;
49854;SDS011;35752;52.164;21.244;2022-07-23T04:07:34;62.83;;;20.17;;
49854;SDS011;35752;52.164;21.244;2022-07-23T04:09:59;43.10;;;18.27;;
49854;SDS011;35752;52.164;21.244;2022-07-23T04:12:25;22.65;;;17.55;;
49854;SDS011;35752;52.164;21.244;2022-07-23T04:14:51;30.98;;;15.73;;
49854;SDS011;35752;52.164;21.244;2022-07-23T04:17:16;23.83;;;14.82;;
49854;SDS011;35752;52.164;21.244;2022-07-23T04:19:42;17.30;;;15.02;;
49854;SDS011;35752;52.164;21.244;2022-07-23T04:22:09;17.70;;;15.90;;
49854;SDS011;35752;52.164;21.244;2022-07-23T04:24:37;18.33;;;15.73;;
49854;SDS011;35752;52.164;21.244;2022-07-23T04:27:03;20.67;;;15.15;;
49854;SDS011;35752;52.164;21.244;2022-07-23T04:29:29;20.42;;;15.02;;
49854;SDS011;35752;52.164;21.244;2022-07-23T04:31:55;21.27;;;15.02;;
49854;SDS011;35752;52.164;21.244;2022-07-23T04:34:21;23.63;;;15.07;;
49854;SDS011;35752;52.164;21.244;2022-07-23T04:36:47;18.13;;;14.18;;
49854;SDS011;35752;52.164;21.244;2022-07-23T04:39:12;29.20;;;14.55;;
49854;SDS011;35752;52.164;21.244;2022-07-23T04:41:38;18.48;;;12.82;;
49854;SDS011;35752;52.164;21.244;2022-07-23T04:44:04;19.15;;;13.75;;
49854;SDS011;35752;52.164;21.244;2022-07-23T04:46:30;19.55;;;14.27;;
49854;SDS011;35752;52.164;21.244;2022-07-23T04:48:55;18.35;;;14.13;;
49854;SDS011;35752;52.164;21.244;2022-07-23T04:51:21;14.43;;;12.80;;
49854;SDS011;35752;52.164;21.244;2022-07-23T04:53:47;16.10;;;13.30;;
49854;SDS011;35752;52.164;21.244;2022-07-23T04:56:12;22.13;;;13.23;;
49854;SDS011;35752;52.164;21.244;2022-07-23T04:58:38;16.80;;;12.73;;
49854;SDS011;35752;52.164;21.244;2022-07-23T05:01:04;14.02;;;12.00;;
49854;SDS011;35752;52.164;21.244;2022-07-23T05:03:30;15.00;;;13.00;;
49854;SDS011;35752;52.164;21.244;2022-07-23T05:05:55;16.20;;;13.35;;
49854;SDS011;35752;52.164;21.244;2022-07-23T05:08:21;16.27;;;12.50;;
49854;SDS011;35752;52.164;21.244;2022-07-23T05:10:47;12.13;;;10.93;;
49854;SDS011;35752;52.164;21.244;2022-07-23T05:13:16;16.95;;;12.80;;
49854;SDS011;35752;52.164;21.244;2022-07-23T05:15:43;13.57;;;11.73;;
49854;SDS011;35752;52.164;21.244;2022-07-23T05:18:09;13.63;;;12.32;;
49854;SDS011;35752;52.164;21.244;2022-07-23T05:20:35;13.63;;;11.60;;
49854;SDS011;35752;52.164;21.244;2022-07-23T05:23:00;22.88;;;12.45;;
49854;SDS011;35752;52.164;21.244;2022-07-23T05:25:26;13.20;;;11.30;;
49854;SDS011;35752;52.164;21.244;2022-07-23T05:27:52;14.57;;;10.98;;
49854;SDS011;35752;52.164;21.244;2022-07-23T05:30:18;14.45;;;10.38;;
49854;SDS011;35752;52.164;21.244;2022-07-23T05:32:44;13.35;;;11.93;;
49854;SDS011;35752;52.164;21.244;2022-07-23T05:35:10;16.63;;;11.68;;
49854;SDS011;35752;52.164;21.244;2022-07-23T05:37:36;16.42;;;11.48;;
49854;SDS011;35752;52.164;21.244;2022-07-23T05:40:05;13.00;;;11.48;;
49854;SDS011;35752;52.164;21.244;2022-07-23T05:42:35;12.45;;;11.15;;
49854;SDS011;35752;52.164;21.244;2022-07-23T05:45:02;11.55;;;10.35;;
49854;SDS011;35752;52.164;21.244;2022-07-23T05:47:28;13.90;;;10.27;;
49854;SDS011;35752;52.164;21.244;2022-07-23T05:50:03;13.20;;;10.48;;
49854;SDS011;35752;52.164;21.244;2022-07-23T05:52:29;11.60;;;9.95;;
49854;SDS011;35752;52.164;21.244;2022-07-23T05:54:55;11.20;;;10.10;;
49854;SDS011;35752;52.164;21.244;2022-07-23T05:57:21;11.25;;;10.10;;
49854;SDS011;35752;52.164;21.244;2022-07-23T05:59:46;12.52;;;9.88;;
49854;SDS011;35752;52.164;21.244;2022-07-23T06:02:12;11.75;;;9.50;;
49854;SDS011;35752;52.164;21.244;2022-07-23T06:04:37;12.13;;;8.98;;
49854;SDS011;35752;52.164;21.244;2022-07-23T06:07:03;12.35;;;10.65;;
49854;SDS011;35752;52.164;21.244;2022-07-23T06:09:29;13.50;;;9.02;;
49854;SDS011;35752;52.164;21.244;2022-07-23T06:11:54;15.80;;;9.85;;
49854;SDS011;35752;52.164;21.244;2022-07-23T06:14:20;16.33;;;8.88;;
49854;SDS011;35752;52.164;21.244;2022-07-23T06:16:46;12.57;;;8.82;;
49854;SDS011;35752;52.164;21.244;2022-07-23T06:19:11;11.60;;;9.85;;
49854;SDS011;35752;52.164;21.244;2022-07-23T06:21:37;9.50;;;8.57;;
49854;SDS011;35752;52.164;21.244;2022-07-23T06:24:03;10.52;;;8.02;;
49854;SDS011;35752;52.164;21.244;2022-07-23T06:26:28;10.40;;;8.75;;
49854;SDS011;35752;52.164;21.244;2022-07-23T06:28:54;126.70;;;15.15;;
49854;SDS011;35752;52.164;21.244;2022-07-23T06:31:20;11.45;;;7.47;;
49854;SDS011;35752;52.164;21.244;2022-07-23T06:33:45;8.75;;;7.80;;
49854;SDS011;35752;52.164;21.244;2022-07-23T06:36:11;10.48;;;7.78;;
49854;SDS011;35752;52.164;21.244;2022-07-23T06:38:37;10.18;;;7.55;;
49854;SDS011;35752;52.164;21.244;2022-07-23T06:41:02;9.20;;;7.30;;
49854;SDS011;35752;52.164;21.244;2022-07-23T06:43:29;10.68;;;7.55;;
49854;SDS011;35752;52.164;21.244;2022-07-23T06:45:56;9.60;;;7.47;;
49854;SDS011;35752;52.164;21.244;2022-07-23T06:48:22;10.27;;;6.88;;
49854;SDS011;35752;52.164;21.244;2022-07-23T06:50:47;25.10;;;8.75;;
49854;SDS011;35752;52.164;21.244;2022-07-23T06:53:13;11.10;;;7.78;;
49854;SDS011;35752;52.164;21.244;2022-07-23T06:55:39;9.48;;;7.10;;
49854;SDS011;35752;52.164;21.244;2022-07-23T06:58:05;9.95;;;7.32;;
49854;SDS011;35752;52.164;21.244;2022-07-23T07:00:31;8.82;;;7.70;;
49854;SDS011;35752;52.164;21.244;2022-07-23T07:02:57;9.32;;;7.57;;
49854;SDS011;35752;52.164;21.244;2022-07-23T07:05:23;7.95;;;7.13;;
49854;SDS011;35752;52.164;21.244;2022-07-23T07:07:52;25.00;;;8.57;;
49854;SDS011;35752;52.164;21.244;2022-07-23T07:10:19;8.52;;;6.82;;
49854;SDS011;35752;52.164;21.244;2022-07-23T07:12:45;8.10;;;7.30;;
49854;SDS011;35752;52.164;21.244;2022-07-23T07:15:11;10.52;;;7.50;;
49854;SDS011;35752;52.164;21.244;2022-07-23T07:17:37;12.48;;;7.38;;
49854;SDS011;35752;52.164;21.244;2022-07-23T07:20:03;11.20;;;6.68;;
49854;SDS011;35752;52.164;21.244;2022-07-23T07:22:29;6.97;;;6.35;;
49854;SDS011;35752;52.164;21.244;2022-07-23T07:24:55;11.10;;;7.00;;
49854;SDS011;35752;52.164;21.244;2022-07-23T07:27:20;11.48;;;7.28;;
49854;SDS011;35752;52.164;21.244;2022-07-23T07:29:46;11.18;;;6.38;;
49854;SDS011;35752;52.164;21.244;2022-07-23T07:32:12;9.23;;;6.93;;
49854;SDS011;35752;52.164;21.244;2022-07-23T07:34:37;9.95;;;7.03;;
49854;SDS011;35752;52.164;21.244;2022-07-23T07:37:03;9.75;;;7.20;;
49854;SDS011;35752;52.164;21.244;2022-07-23T07:39:29;11.38;;;7.18;;
49854;SDS011;35752;52.164;21.244;2022-07-23T07:41:54;7.30;;;5.93;;
49854;SDS011;35752;52.164;21.244;2022-07-23T07:44:20;5.88;;;5.28;;
49854;SDS011;35752;52.164;21.244;2022-07-23T07:46:46;7.15;;;5.65;;
49854;SDS011;35752;52.164;21.244;2022-07-23T07:49:11;10.00;;;6.00;;
49854;SDS011;35752;52.164;21.244;2022-07-23T07:51:37;7.80;;;5.70;;
49854;SDS011;35752;52.164;21.244;2022-07-23T07:54:03;6.55;;;5.55;;
49854;SDS011;35752;52.164;21.244;2022-07-23T07:56:28;25.23;;;5.97;;
49854;SDS011;35752;52.164;21.244;2022-07-23T07:58:54;9.25;;;6.00;;
49854;SDS011;35752;52.164;21.244;2022-07-23T08:01:20;5.60;;;5.03;;
49854;SDS011;35752;52.164;21.244;2022-07-23T08:03:46;29.67;;;7.00;;
49854;SDS011;35752;52.164;21.244;2022-07-23T08:06:12;13.02;;;5.68;;
49854;SDS011;35752;52.164;21.244;2022-07-23T08:08:38;7.43;;;5.50;;
49854;SDS011;35752;52.164;21.244;2022-07-23T08:11:03;8.05;;;4.82;;
49854;SDS011;35752;52.164;21.244;2022-07-23T08:13:29;6.00;;;5.40;;
49854;SDS011;35752;52.164;21.244;2022-07-23T08:15:55;6.63;;;5.53;;
49854;SDS011;35752;52.164;21.244;2022-07-23T08:18:20;8.13;;;5.30;;
49854;SDS011;35752;52.164;21.244;2022-07-23T08:20:46;6.68;;;5.75;;
49854;SDS011;35752;52.164;21.244;2022-07-23T08:23:12;9.50;;;5.80;;
49854;SDS011;35752;52.164;21.244;2022-07-23T08:25:39;6.50;;;5.90;;
49854;SDS011;35752;52.164;21.244;2022-07-23T08:28:07;8.32;;;6.03;;
49854;SDS011;35752;52.164;21.244;2022-07-23T08:30:34;8.60;;;5.47;;
49854;SDS011;35752;52.164;21.244;2022-07-23T08:33:05;6.88;;;5.05;;
49854;SDS011;35752;52.164;21.244;2022-07-23T08:35:41;7.75;;;4.97;;
49854;SDS011;35752;52.164;21.244;2022-07-23T08:38:12;9.57;;;5.57;;
49854;SDS011;35752;52.164;21.244;2022-07-23T08:40:41;9.82;;;5.00;;
49854;SDS011;35752;52.164;21.244;2022-07-23T08:43:12;9.73;;;5.95;;
49854;SDS011;35752;52.164;21.244;2022-07-23T08:45:43;9.05;;;5.55;;
49854;SDS011;35752;52.164;21.244;2022-07-23T08:48:14;11.88;;;5.53;;
49854;SDS011;35752;52.164;21.244;2022-07-23T08:50:51;7.07;;;5.10;;
49854;SDS011;35752;52.164;21.244;2022-07-23T08:53:21;8.80;;;5.20;;
49854;SDS011;35752;52.164;21.244;2022-07-23T08:55:49;7.32;;;5.50;;
49854;SDS011;35752;52.164;21.244;2022-07-23T08:58:16;6.00;;;5.38;;
49854;SDS011;35752;52.164;21.244;2022-07-23T09:00:43;6.10;;;4.97;;
49854;SDS011;35752;52.164;21.244;2022-07-23T09:03:20;6.43;;;5.70;;
49854;SDS011;35752;52.164;21.244;2022-07-23T09:05:49;7.60;;;5.43;;
49854;SDS011;35752;52.164;21.244;2022-07-23T09:08:17;6.93;;;4.63;;
49854;SDS011;35752;52.164;21.244;2022-07-23T09:10:57;5.15;;;4.63;;
49854;SDS011;35752;52.164;21.244;2022-07-23T09:16:14;9.50;;;5.50;;
49854;SDS011;35752;52.164;21.244;2022-07-23T09:18:48;6.63;;;5.32;;
49854;SDS011;35752;52.164;21.244;2022-07-23T09:23:54;5.45;;;3.95;;
49854;SDS011;35752;52.164;21.244;2022-07-23T09:29:18;6.28;;;4.60;;
49854;SDS011;35752;52.164;21.244;2022-07-23T09:36:41;8.20;;;4.68;;
49854;SDS011;35752;52.164;21.244;2022-07-23T09:39:08;6.43;;;4.63;;
49854;SDS011;35752;52.164;21.244;2022-07-23T09:41:39;8.40;;;4.63;;
49854;SDS011;35752;52.164;21.244;2022-07-23T09:44:08;6.55;;;4.68;;
49854;SDS011;35752;52.164;21.244;2022-07-23T09:46:35;8.38;;;4.45;;
49854;SDS011;35752;52.164;21.244;2022-07-23T09:49:09;6.68;;;4.45;;
49854;SDS011;35752;52.164;21.244;2022-07-23T09:51:47;6.88;;;4.97;;
49854;SDS011;35752;52.164;21.244;2022-07-23T09:54:20;7.57;;;4.93;;
49854;SDS011;35752;52.164;21.244;2022-07-23T09:56:52;8.85;;;5.40;;
49854;SDS011;35752;52.164;21.244;2022-07-23T09:59:18;8.55;;;4.60;;
49854;SDS011;35752;52.164;21.244;2022-07-23T10:01:50;5.40;;;4.47;;
49854;SDS011;35752;52.164;21.244;2022-07-23T10:04:16;6.03;;;5.15;;
49854;SDS011;35752;52.164;21.244;2022-07-23T10:06:43;6.50;;;5.20;;
49854;SDS011;35752;52.164;21.244;2022-07-23T10:09:09;7.68;;;4.68;;
49854;SDS011;35752;52.164;21.244;2022-07-23T10:11:37;13.40;;;4.85;;
49854;SDS011;35752;52.164;21.244;2022-07-23T10:14:03;4.88;;;4.05;;
49854;SDS011;35752;52.164;21.244;2022-07-23T10:16:32;7.97;;;5.13;;
49854;SDS011;35752;52.164;21.244;2022-07-23T10:18:57;44.45;;;7.28;;
49854;SDS011;35752;52.164;21.244;2022-07-23T10:21:25;8.93;;;4.78;;
49854;SDS011;35752;52.164;21.244;2022-07-23T10:37:28;5.82;;;5.03;;
49854;SDS011;35752;52.164;21.244;2022-07-23T10:42:42;6.30;;;4.97;;
49854;SDS011;35752;52.164;21.244;2022-07-23T10:47:52;5.93;;;5.22;;
49854;SDS011;35752;52.164;21.244;2022-07-23T10:50:29;8.75;;;5.38;;
49854;SDS011;35752;52.164;21.244;2022-07-23T10:57:58;17.95;;;5.30;;
49854;SDS011;35752;52.164;21.244;2022-07-23T11:00:26;5.43;;;4.60;;
49854;SDS011;35752;52.164;21.244;2022-07-23T11:02:54;5.28;;;4.55;;
49854;SDS011;35752;52.164;21.244;2022-07-23T11:05:41;8.70;;;4.45;;
49854;SDS011;35752;52.164;21.244;2022-07-23T11:13:30;7.97;;;5.25;;
49854;SDS011;35752;52.164;21.244;2022-07-23T11:31:58;6.68;;;5.45;;
49854;SDS011;35752;52.164;21.244;2022-07-23T11:34:40;6.85;;;4.78;;
49854;SDS011;35752;52.164;21.244;2022-07-23T11:37:08;7.43;;;5.25;;
49854;SDS011;35752;52.164;21.244;2022-07-23T11:39:35;7.75;;;5.45;;
49854;SDS011;35752;52.164;21.244;2022-07-23T11:42:02;9.70;;;5.25;;
49854;SDS011;35752;52.164;21.244;2022-07-23T11:44:36;8.70;;;5.35;;
49854;SDS011;35752;52.164;21.244;2022-07-23T11:47:06;7.28;;;5.43;;
49854;SDS011;35752;52.164;21.244;2022-07-23T11:49:34;6.30;;;4.85;;
49854;SDS011;35752;52.164;21.244;2022-07-23T11:52:07;5.97;;;5.32;;
49854;SDS011;35752;52.164;21.244;2022-07-23T11:54:35;7.68;;;5.30;;
49854;SDS011;35752;52.164;21.244;2022-07-23T11:57:03;5.78;;;5.18;;
49854;SDS011;35752;52.164;21.244;2022-07-23T11:59:31;10.68;;;5.50;;
49854;SDS011;35752;52.164;21.244;2022-07-23T12:02:04;7.82;;;5.00;;
49854;SDS011;35752;52.164;21.244;2022-07-23T12:09:59;7.75;;;4.75;;
49854;SDS011;35752;52.164;21.244;2022-07-23T12:12:41;5.22;;;4.32;;
49854;SDS011;35752;52.164;21.244;2022-07-23T12:15:29;6.78;;;4.78;;
49854;SDS011;35752;52.164;21.244;2022-07-23T12:17:58;6.43;;;4.38;;
49854;SDS011;35752;52.164;21.244;2022-07-23T12:20:28;8.63;;;4.45;;
49854;SDS011;35752;52.164;21.244;2022-07-23T12:23:03;5.93;;;4.40;;
49854;SDS011;35752;52.164;21.244;2022-07-23T12:25:32;6.80;;;4.47;;
49854;SDS011;35752;52.164;21.244;2022-07-23T12:33:05;6.20;;;4.90;;
49854;SDS011;35752;52.164;21.244;2022-07-23T12:35:41;8.45;;;4.82;;
49854;SDS011;35752;52.164;21.244;2022-07-23T12:38:14;10.82;;;5.20;;
49854;SDS011;35752;52.164;21.244;2022-07-23T12:43:11;6.63;;;4.97;;
49854;SDS011;35752;52.164;21.244;2022-07-23T12:45:48;5.70;;;4.72;;
49854;SDS011;35752;52.164;21.244;2022-07-23T12:53:50;5.88;;;5.10;;
49854;SDS011;35752;52.164;21.244;2022-07-23T12:56:16;7.82;;;5.03;;
49854;SDS011;35752;52.164;21.244;2022-07-23T13:01:44;7.50;;;5.10;;
49854;SDS011;35752;52.164;21.244;2022-07-23T13:04:18;6.65;;;5.40;;
49854;SDS011;35752;52.164;21.244;2022-07-23T13:09:14;11.23;;;5.57;;
49854;SDS011;35752;52.164;21.244;2022-07-23T13:11:48;30.33;;;6.38;;
49854;SDS011;35752;52.164;21.244;2022-07-23T13:14:15;11.63;;;5.15;;
49854;SDS011;35752;52.164;21.244;2022-07-23T13:16:42;8.00;;;4.88;;
49854;SDS011;35752;52.164;21.244;2022-07-23T13:19:09;8.85;;;5.50;;
49854;SDS011;35752;52.164;21.244;2022-07-23T13:21:35;7.90;;;4.75;;
49854;SDS011;35752;52.164;21.244;2022-07-23T13:24:01;5.80;;;5.20;;
49854;SDS011;35752;52.164;21.244;2022-07-23T13:26:27;6.60;;;5.30;;
49854;SDS011;35752;52.164;21.244;2022-07-23T13:28:53;6.90;;;5.20;;
49854;SDS011;35752;52.164;21.244;2022-07-23T13:31:19;6.78;;;4.78;;
49854;SDS011;35752;52.164;21.244;2022-07-23T13:33:45;6.65;;;4.40;;
49854;SDS011;35752;52.164;21.244;2022-07-23T13:36:11;5.47;;;4.95;;
49854;SDS011;35752;52.164;21.244;2022-07-23T13:38:37;6.03;;;5.20;;
49854;SDS011;35752;52.164;21.244;2022-07-23T13:41:04;5.78;;;5.25;;
49854;SDS011;35752;52.164;21.244;2022-07-23T13:43:30;6.95;;;5.80;;
49854;SDS011;35752;52.164;21.244;2022-07-23T13:45:56;7.35;;;5.00;;
49854;SDS011;35752;52.164;21.244;2022-07-23T13:48:22;6.35;;;5.45;;
49854;SDS011;35752;52.164;21.244;2022-07-23T13:50:48;9.00;;;5.60;;
49854;SDS011;35752;52.164;21.244;2022-07-23T13:53:16;10.93;;;5.20;;
49854;SDS011;35752;52.164;21.244;2022-07-23T13:55:44;7.00;;;5.00;;
49854;SDS011;35752;52.164;21.244;2022-07-23T13:58:11;7.60;;;5.13;;
49854;SDS011;35752;52.164;21.244;2022-07-23T14:00:38;5.35;;;4.85;;
49854;SDS011;35752;52.164;21.244;2022-07-23T14:03:06;5.93;;;5.07;;
49854;SDS011;35752;52.164;21.244;2022-07-23T14:05:32;6.00;;;5.40;;
49854;SDS011;35752;52.164;21.244;2022-07-23T14:07:57;9.52;;;5.70;;
49854;SDS011;35752;52.164;21.244;2022-07-23T14:10:23;6.97;;;5.25;;
49854;SDS011;35752;52.164;21.244;2022-07-23T14:12:50;5.95;;;4.78;;
49854;SDS011;35752;52.164;21.244;2022-07-23T14:15:20;6.70;;;4.97;;
49854;SDS011;35752;52.164;21.244;2022-07-23T14:17:46;7.32;;;5.15;;
49854;SDS011;35752;52.164;21.244;2022-07-23T14:20:13;6.20;;;4.78;;
49854;SDS011;35752;52.164;21.244;2022-07-23T14:22:39;5.68;;;5.18;;
49854;SDS011;35752;52.164;21.244;2022-07-23T14:25:05;6.88;;;5.55;;
49854;SDS011;35752;52.164;21.244;2022-07-23T14:27:33;11.35;;;5.72;;
49854;SDS011;35752;52.164;21.244;2022-07-23T14:29:59;6.50;;;5.65;;
49854;SDS011;35752;52.164;21.244;2022-07-23T14:32:25;8.52;;;5.07;;
49854;SDS011;35752;52.164;21.244;2022-07-23T14:35:04;8.20;;;5.80;;
49854;SDS011;35752;52.164;21.244;2022-07-23T14:37:31;11.52;;;5.57;;
49854;SDS011;35752;52.164;21.244;2022-07-23T14:39:57;6.85;;;5.38;;
49854;SDS011;35752;52.164;21.244;2022-07-23T14:42:22;7.90;;;5.85;;
49854;SDS011;35752;52.164;21.244;2022-07-23T14:44:48;7.68;;;5.60;;
49854;SDS011;35752;52.164;21.244;2022-07-23T14:47:14;5.63;;;5.10;;
49854;SDS011;35752;52.164;21.244;2022-07-23T14:49:40;9.52;;;5.75;;
49854;SDS011;35752;52.164;21.244;2022-07-23T14:52:06;9.38;;;5.88;;
49854;SDS011;35752;52.164;21.244;2022-07-23T14:54:32;7.97;;;5.75;;
49854;SDS011;35752;52.164;21.244;2022-07-23T14:56:58;9.02;;;6.50;;
49854;SDS011;35752;52.164;21.244;2022-07-23T14:59:25;10.55;;;5.60;;
49854;SDS011;35752;52.164;21.244;2022-07-23T15:01:52;24.88;;;5.65;;
49854;SDS011;35752;52.164;21.244;2022-07-23T15:04:18;35.72;;;6.28;;
49854;SDS011;35752;52.164;21.244;2022-07-23T15:06:43;29.15;;;6.00;;
49854;SDS011;35752;52.164;21.244;2022-07-23T15:09:09;64.25;;;7.57;;
49854;SDS011;35752;52.164;21.244;2022-07-23T15:11:35;17.40;;;4.80;;
49854;SDS011;35752;52.164;21.244;2022-07-23T15:14:05;18.38;;;4.90;;
49854;SDS011;35752;52.164;21.244;2022-07-23T15:16:31;16.15;;;4.88;;
49854;SDS011;35752;52.164;21.244;2022-07-23T15:18:58;11.20;;;4.05;;
49854;SDS011;35752;52.164;21.244;2022-07-23T15:21:24;12.35;;;4.20;;
49854;SDS011;35752;52.164;21.244;2022-07-23T15:23:50;22.80;;;4.53;;
49854;SDS011;35752;52.164;21.244;2022-07-23T15:26:16;9.07;;;4.47;;
49854;SDS011;35752;52.164;21.244;2022-07-23T15:28:43;8.82;;;4.50;;
49854;SDS011;35752;52.164;21.244;2022-07-23T15:31:08;8.55;;;4.80;;
49854;SDS011;35752;52.164;21.244;2022-07-23T15:33:34;13.88;;;4.07;;
49854;SDS011;35752;52.164;21.244;2022-07-23T15:36:01;7.07;;;4.38;;
49854;SDS011;35752;52.164;21.244;2022-07-23T15:38:27;9.32;;;4.93;;
49854;SDS011;35752;52.164;21.244;2022-07-23T15:40:53;9.80;;;4.72;;
49854;SDS011;35752;52.164;21.244;2022-07-23T15:43:20;9.23;;;5.22;;
49854;SDS011;35752;52.164;21.244;2022-07-23T15:45:47;10.40;;;5.65;;
49854;SDS011;35752;52.164;21.244;2022-07-23T15:48:13;10.20;;;5.57;;
49854;SDS011;35752;52.164;21.244;2022-07-23T15:50:39;13.85;;;5.72;;
49854;SDS011;35752;52.164;21.244;2022-07-23T15:53:05;8.27;;;6.28;;
49854;SDS011;35752;52.164;21.244;2022-07-23T15:55:30;8.90;;;6.43;;